CW2125 Weather Reports


Display with metric or nautical units.
time (UTC)temp
F
wind
direction
speed
MPH
gust
MPH
rain 1hr
in
rain 24hr
in
rain mn
in
humidity
%
barometer
mb
20240614173003 76 38 6.0 10.0 0.00 0.00 0.00 47 1014.4
20240614171600 75 349 2.0 9.0 0.00 0.00 0.00 53 1014.4
20240614170059 75 48 2.0 9.0 0.00 0.00 0.00 51 1014.3
20240614164612 75 333 3.0 11.0 0.00 0.00 0.00 48 1014.3
20240614163055 75 76 5.0 10.0 0.00 0.00 0.00 52 1014.2
20240614161553 74 338 6.0 10.0 0.00 0.00 0.00 52 1014.2
20240614160050 73 67 5.0 10.0 0.00 0.00 0.00 52 1014.1
20240614154548 73 62 5.0 10.0 0.00 0.00 0.00 53 1014.0
20240614153046 72 50 4.0 12.0 0.00 0.00 0.00 54 1013.9
20240614151545 72 36 5.0 10.0 0.00 0.00 0.00 55 1013.8
20240614150045 72 24 6.0 9.0 0.00 0.00 0.00 54 1013.7
20240614144551 71 86 5.0 10.0 0.00 0.00 0.00 55 1013.7
20240614143043 71 121 6.0 10.0 0.00 0.00 0.00 56 1013.6
20240614141543 70 343 5.0 9.0 0.00 0.00 0.00 57 1013.6
20240614140041 70 41 4.0 8.0 0.00 0.00 0.00 57 1013.6
20240614134542 70 39 3.0 9.0 0.00 0.00 0.00 58 1013.6
20240614133038 69 59 6.0 9.0 0.00 0.00 0.00 59 1013.5
20240614131551 69 355 5.0 8.0 0.00 0.00 0.00 61 1013.4
20240614130037 68 38 4.0 8.0 0.00 0.00 0.00 62 1013.3
20240614124534 68 12 5.0 8.0 0.00 0.00 0.00 61 1013.1
20240614123031 68 22 3.0 7.0 0.00 0.00 0.00 67 1012.9
20240614121526 67 321 5.0 7.0 0.00 0.00 0.00 68 1012.5
20240614120024 66 275 2.0 4.0 0.00 0.00 0.00 77 1012.4
20240614114523 65 132 1.0 3.0 0.00 0.00 0.00 84 1012.3
20240614113020 63 283 0.0 2.0 0.00 0.00 0.00 84 1012.3
20240614111537 62 166 0.0 1.0 0.00 0.00 0.00 87 1012.1
20240614110020 61 276 0.0 1.0 0.00 0.00 0.00 90 1012.0
20240614104522 59 189 0.0 0.0 0.00 0.01 0.00 91 1012.0
20240614103016 58 293 0.0 0.0 0.00 0.01 0.00 91 1011.9
20240614101515 58 100 0.0 1.0 0.00 0.01 0.00 90 1011.8
20240614100014 58 114 0.0 0.0 0.00 0.01 0.00 90 1011.6
20240614094511 58 21 0.0 1.0 0.00 0.01 0.00 89 1011.5
20240614093009 59 57 0.0 0.0 0.00 0.01 0.00 88 1011.2
20240614091506 59 57 0.0 0.0 0.00 0.01 0.00 88 1010.9
20240614090004 60 57 0.0 1.0 0.00 0.01 0.00 87 1010.6
20240614084636 61 57 0.0 0.0 0.00 0.01 0.00 83 1010.5
20240614083100 62 57 0.0 0.0 0.00 0.01 0.00 81 1010.5
20240614081553 63 57 0.0 0.0 0.00 0.01 0.00 79 1010.4
20240614080050 64 57 0.0 0.0 0.00 0.01 0.00 77 1010.2
20240614074553 64 57 1.0 4.0 0.00 0.01 0.00 76 1010.1
20240614073046 64 47 3.0 6.0 0.00 0.01 0.00 77 1009.9
20240614071544 65 48 2.0 7.0 0.00 0.01 0.00 77 1009.9
20240614070042 65 49 3.0 8.0 0.00 0.01 0.00 79 1009.8
20240614064540 65 17 0.0 2.0 0.00 0.01 0.00 81 1009.6
20240614063048 66 17 3.0 5.0 0.00 0.01 0.00 81 1009.6
20240614061537 66 360 3.0 4.0 0.00 0.01 0.00 83 1009.7
20240614060038 66 355 0.0 2.0 0.00 0.01 0.00 84 1009.8
20240614054544 67 355 0.0 2.0 0.00 0.01 0.00 86 1009.9
20240614053029 69 355 2.0 3.0 0.00 0.01 0.00 88 1009.7
20240614051533 70 355 2.0 5.0 0.00 0.01 0.00 91 1009.8
20240614050038 71 339 2.0 4.0 0.00 0.01 0.00 89 1009.8
20240614044521 71 229 1.0 3.0 0.00 0.01 0.00 89 1009.5
20240614043018 72 229 2.0 5.0 0.00 0.01 0.00 89 1009.8
20240614041519 72 264 2.0 5.0 0.00 0.01 0.00 89 1009.5
20240614040017 73 251 3.0 7.0 0.00 0.01 0.00 88 1009.4
20240614034510 73 264 3.0 9.0 0.00 0.01 0.01 87 1009.1
20240614033010 73 242 3.0 7.0 0.00 0.01 0.01 87 1008.8
20240614031510 73 227 2.0 6.0 0.00 0.01 0.01 85 1008.5
20240614030016 74 222 4.0 8.0 0.00 0.01 0.01 85 1008.1
20240614024509 74 225 5.0 9.0 0.00 0.01 0.01 84 1007.9
20240614023008 74 212 6.0 12.0 0.00 0.01 0.01 83 1007.9
20240614021508 74 234 7.0 12.0 0.00 0.01 0.01 82 1007.6
20240614020007 75 221 5.0 11.0 0.00 0.01 0.01 81 1007.3
20240614014509 75 200 5.0 12.0 0.00 0.01 0.01 80 1007.2
20240614013008 76 221 5.0 11.0 0.00 0.01 0.01 79 1007.1
20240614011506 76 211 6.0 15.0 0.00 0.01 0.01 78 1007.2
20240614010005 77 191 10.0 16.0 0.00 0.01 0.01 76 1007.4
20240614004506 79 215 10.0 16.0 0.00 0.01 0.01 74 1007.4
20240614003004 79 205 8.0 20.0 0.00 0.01 0.01 73 1007.4
20240614001503 80 235 14.0 20.0 0.00 0.01 0.01 71 1007.5
20240614000003 81 209 9.0 16.0 0.00 0.01 0.01 70 1007.3
20240613234505 81 208 7.0 13.0 0.00 0.01 0.01 68 1006.7
20240613233002 82 209 7.0 11.0 0.00 0.01 0.01 68 1006.3
20240613231500 82 224 8.0 14.0 0.00 0.01 0.01 66 1006.7
20240613230003 82 241 6.0 11.0 0.00 0.01 0.01 65 1006.5
20240613224607 82 219 7.0 14.0 0.00 0.01 0.01 66 1006.5
20240613223059 83 211 11.0 18.0 0.00 0.01 0.01 64 1006.7
20240613221559 81 237 10.0 20.0 0.00 0.01 0.01 66 1007.0
20240613220058 82 238 6.0 15.0 0.00 0.01 0.01 66 1006.8
20240613214657 83 248 9.0 18.0 0.00 0.01 0.01 62 1006.5
20240613213057 83 259 13.0 23.0 0.00 0.01 0.01 60 1006.1
20240613211555 83 259 14.0 23.0 0.00 0.01 0.01 60 1006.3
20240613210053 83 229 12.0 25.0 0.00 0.01 0.01 59 1006.8
20240613204554 85 255 14.0 22.0 0.00 0.01 0.01 56 1006.8
20240613203054 85 236 8.0 17.0 0.00 0.01 0.01 59 1006.6
20240613201551 83 261 5.0 12.0 0.00 0.01 0.01 60 1006.7
20240613200051 84 250 8.0 20.0 0.00 0.01 0.01 58 1006.7
20240613194551 83 261 7.0 16.0 0.00 0.01 0.01 58 1006.5
20240613193049 83 219 7.0 16.0 0.00 0.01 0.01 58 1006.7
20240613191551 84 238 12.0 20.0 0.00 0.01 0.01 58 1006.7
20240613190048 84 250 10.0 18.0 0.00 0.01 0.01 56 1006.8
20240613184604 85 221 8.0 24.0 0.00 0.01 0.01 58 1006.8
20240613183059 84 226 10.0 19.0 0.00 0.01 0.01 56 1006.9
20240613181544 85 220 7.0 20.0 0.00 0.01 0.01 57 1006.9
20240613180044 85 244 10.0 20.0 0.00 0.01 0.01 56 1007.0
20240613174602 85 215 10.0 18.0 0.00 0.01 0.01 58 1007.1